createdAt,value
2019-06-26T00:01:45.368Z,20.68
2019-06-26T00:04:17.572Z,20.64
2019-06-26T00:06:49.868Z,20.60
2019-06-26T00:09:22.284Z,20.53
2019-06-26T00:11:54.588Z,20.48
2019-06-26T00:14:26.936Z,20.55
2019-06-26T00:16:59.116Z,20.61
2019-06-26T00:19:35.010Z,20.57
2019-06-26T00:22:08.250Z,20.50
2019-06-26T00:24:40.393Z,20.49
2019-06-26T00:27:12.839Z,20.45
2019-06-26T00:29:46.225Z,20.43
2019-06-26T00:32:18.827Z,20.42
2019-06-26T00:34:51.642Z,20.39
2019-06-26T00:37:23.767Z,20.35
2019-06-26T00:39:56.255Z,20.30
2019-06-26T00:42:28.340Z,20.30
2019-06-26T00:45:00.531Z,20.22
2019-06-26T00:47:32.855Z,20.16
2019-06-26T00:50:10.109Z,20.14
2019-06-26T00:52:42.246Z,20.03
2019-06-26T00:55:14.535Z,20.31
2019-06-26T00:57:46.729Z,20.47
2019-06-26T01:00:20.987Z,20.72
2019-06-26T01:02:53.423Z,20.30
2019-06-26T01:05:25.846Z,20.08
2019-06-26T01:07:58.007Z,19.97
2019-06-26T01:10:30.547Z,19.92
2019-06-26T01:13:02.773Z,19.73
2019-06-26T01:15:35.037Z,19.69
2019-06-26T01:18:07.528Z,19.60
2019-06-26T01:20:39.729Z,19.49
2019-06-26T01:23:13.109Z,19.38
2019-06-26T01:25:45.346Z,19.39
2019-06-26T01:28:17.518Z,19.34
2019-06-26T01:30:49.892Z,19.35
2019-06-26T01:33:22.036Z,19.29
2019-06-26T01:35:55.637Z,19.22
2019-06-26T01:38:27.930Z,19.19
2019-06-26T01:41:00.315Z,19.07
2019-06-26T01:43:35.804Z,19.01
2019-06-26T01:46:08.162Z,18.90
2019-06-26T01:48:40.366Z,18.80
2019-06-26T01:51:12.776Z,18.76
2019-06-26T01:53:45.218Z,18.79
2019-06-26T01:56:18.123Z,18.78
2019-06-26T01:58:50.376Z,18.73
2019-06-26T02:01:22.916Z,18.69
2019-06-26T02:03:55.435Z,18.71
2019-06-26T02:06:27.668Z,18.63
2019-06-26T02:09:00.079Z,18.66
2019-06-26T02:11:32.470Z,18.61
2019-06-26T02:14:04.761Z,18.62
2019-06-26T02:16:38.651Z,18.65
2019-06-26T02:19:14.899Z,18.67
2019-06-26T02:21:47.057Z,18.66
2019-06-26T02:24:20.287Z,18.67
2019-06-26T02:26:53.612Z,18.68
2019-06-26T02:29:26.028Z,18.74
2019-06-26T02:31:58.358Z,18.83
2019-06-26T02:34:30.570Z,18.90
2019-06-26T02:37:02.802Z,19.00
2019-06-26T02:39:36.351Z,19.06
2019-06-26T02:42:08.742Z,19.05
2019-06-26T02:44:53.159Z,19.09
2019-06-26T02:47:20.091Z,19.13
2019-06-26T02:49:48.559Z,19.22
2019-06-26T02:52:20.773Z,19.40
2019-06-26T02:54:53.229Z,19.48
2019-06-26T02:57:25.595Z,19.39
2019-06-26T02:59:58.048Z,19.33
2019-06-26T03:02:30.539Z,19.33
2019-06-26T03:05:03.189Z,19.40
2019-06-26T03:07:35.630Z,19.44
2019-06-26T03:10:09.204Z,19.49
2019-06-26T03:12:41.189Z,19.47
2019-06-26T03:15:14.118Z,19.50
2019-06-26T03:17:55.411Z,19.70
2019-06-26T03:20:23.079Z,19.83
2019-06-26T03:22:55.343Z,19.76
2019-06-26T03:25:33.213Z,19.86
2019-06-26T03:28:08.214Z,19.80
2019-06-26T03:30:40.426Z,19.85
2019-06-26T03:33:14.269Z,19.77
2019-06-26T03:35:46.377Z,19.98
2019-06-26T03:38:20.009Z,19.93
2019-06-26T03:40:52.374Z,20.03
2019-06-26T03:43:24.526Z,20.16
2019-06-26T03:45:56.660Z,20.16
2019-06-26T03:48:30.565Z,20.21
2019-06-26T03:51:02.730Z,20.18
2019-06-26T03:53:34.905Z,20.25
2019-06-26T03:56:07.278Z,20.42
2019-06-26T03:58:39.978Z,20.13
2019-06-26T04:01:12.377Z,20.32
2019-06-26T04:03:44.587Z,20.48
2019-06-26T04:06:17.780Z,20.37
2019-06-26T04:08:49.971Z,20.50
2019-06-26T04:11:23.458Z,20.60
2019-06-26T04:13:55.822Z,20.80
2019-06-26T04:16:28.070Z,20.68
2019-06-26T04:19:00.296Z,20.67
2019-06-26T04:21:32.723Z,20.81
2019-06-26T04:24:04.966Z,20.78
2019-06-26T04:26:39.159Z,20.92
2019-06-26T04:29:12.243Z,21.05
2019-06-26T04:31:45.984Z,21.12
2019-06-26T04:34:18.376Z,21.21
2019-06-26T04:36:50.885Z,21.94
2019-06-26T04:39:23.206Z,21.84
2019-06-26T04:41:55.578Z,21.91
2019-06-26T04:44:27.861Z,21.68
2019-06-26T04:47:00.139Z,21.62
2019-06-26T04:49:32.548Z,21.58
2019-06-26T04:52:05.010Z,21.71
2019-06-26T04:54:37.403Z,21.75
2019-06-26T04:57:09.711Z,21.89
2019-06-26T04:59:41.951Z,22.03
2019-06-26T05:02:15.083Z,21.86
2019-06-26T05:04:47.145Z,22.01
2019-06-26T05:07:19.538Z,22.14
2019-06-26T05:09:55.340Z,22.35
2019-06-26T05:12:28.596Z,22.41
2019-06-26T05:15:02.321Z,22.61
2019-06-26T05:17:35.624Z,22.60
2019-06-26T05:20:08.664Z,22.54
2019-06-26T05:22:41.921Z,22.44
2019-06-26T05:25:16.295Z,22.59
2019-06-26T05:27:49.879Z,22.70
2019-06-26T05:30:22.095Z,23.00
2019-06-26T05:32:54.616Z,22.90
2019-06-26T05:35:29.012Z,22.80
2019-06-26T05:38:01.128Z,22.86
2019-06-26T05:40:33.273Z,23.36
2019-06-26T05:43:05.626Z,23.31
2019-06-26T05:45:37.950Z,23.31
2019-06-26T05:48:10.199Z,23.52
2019-06-26T05:50:43.993Z,23.39
2019-06-26T05:53:17.032Z,23.28
2019-06-26T05:55:49.868Z,23.54
2019-06-26T05:58:23.073Z,23.64
2019-06-26T06:00:56.328Z,23.54
2019-06-26T06:03:28.739Z,23.57
2019-06-26T06:06:00.921Z,23.58
2019-06-26T06:08:32.963Z,23.85
2019-06-26T06:11:05.293Z,24.43
2019-06-26T06:13:37.471Z,24.49
2019-06-26T06:16:10.135Z,24.22
2019-06-26T06:18:42.620Z,24.17
2019-06-26T06:21:15.971Z,24.42
2019-06-26T06:23:48.406Z,24.69
2019-06-26T06:26:20.863Z,24.49
2019-06-26T06:28:55.156Z,24.41
2019-06-26T06:31:29.165Z,24.74
2019-06-26T06:34:01.374Z,24.67
2019-06-26T06:36:33.922Z,24.83
2019-06-26T06:39:06.891Z,24.89
2019-06-26T06:41:38.962Z,24.96
2019-06-26T06:44:11.125Z,25.21
2019-06-26T06:46:44.906Z,25.54
2019-06-26T06:49:16.946Z,25.49
2019-06-26T06:51:50.156Z,25.53
2019-06-26T06:54:23.253Z,25.50
2019-06-26T06:56:55.939Z,25.43
2019-06-26T06:59:29.036Z,25.52
2019-06-26T07:02:01.485Z,25.57
2019-06-26T07:04:34.526Z,25.78
2019-06-26T07:07:06.612Z,25.68
2019-06-26T07:09:38.857Z,25.50
2019-06-26T07:12:11.935Z,25.79
2019-06-26T07:14:46.432Z,25.96
2019-06-26T07:17:20.965Z,26.24
2019-06-26T07:19:55.236Z,26.13
2019-06-26T07:22:26.551Z,26.13
2019-06-26T07:25:01.032Z,26.11
2019-06-26T07:27:34.466Z,26.08
2019-06-26T07:30:08.455Z,26.14
2019-06-26T07:32:39.928Z,26.49
2019-06-26T07:35:13.856Z,26.77
2019-06-26T07:37:46.724Z,26.73
2019-06-26T07:40:19.814Z,26.81
2019-06-26T07:42:53.384Z,26.52
2019-06-26T07:45:25.608Z,26.63
2019-06-26T07:47:58.070Z,26.37
2019-06-26T07:50:32.699Z,26.71
2019-06-26T07:53:06.563Z,26.71
2019-06-26T07:55:40.598Z,26.83
2019-06-26T07:58:13.456Z,26.91
2019-06-26T08:00:45.744Z,26.78
2019-06-26T08:03:18.562Z,26.70
2019-06-26T08:05:52.778Z,26.70
2019-06-26T08:08:26.510Z,26.98
2019-06-26T08:11:07.707Z,27.24
2019-06-26T08:13:41.050Z,27.39
2019-06-26T08:16:14.055Z,27.52
2019-06-26T08:18:47.569Z,27.57
2019-06-26T08:21:20.529Z,27.32
2019-06-26T08:23:56.980Z,27.36
2019-06-26T08:26:30.114Z,27.78
2019-06-26T08:29:05.657Z,27.53
2019-06-26T08:31:38.556Z,27.61
2019-06-26T08:34:10.692Z,27.60
2019-06-26T08:36:43.068Z,27.28
2019-06-26T08:39:15.878Z,27.52
2019-06-26T08:41:49.784Z,27.83
2019-06-26T08:44:22.354Z,27.77
2019-06-26T08:46:54.468Z,27.73
2019-06-26T08:49:28.339Z,27.73
2019-06-26T08:51:59.929Z,27.99
2019-06-26T08:54:34.005Z,27.62
2019-06-26T08:57:09.890Z,27.71
2019-06-26T08:59:42.759Z,28.36
2019-06-26T09:02:15.724Z,27.85
2019-06-26T09:04:49.296Z,27.86
2019-06-26T09:07:21.569Z,28.03
2019-06-26T09:09:53.667Z,28.16
2019-06-26T09:12:27.007Z,28.20
2019-06-26T09:15:00.346Z,28.37
2019-06-26T09:17:33.872Z,28.44
2019-06-26T09:20:08.223Z,28.11
2019-06-26T09:22:43.405Z,28.19
2019-06-26T09:25:22.010Z,28.31
2019-06-26T09:27:52.589Z,28.30
2019-06-26T09:30:26.500Z,28.12
2019-06-26T09:33:01.952Z,28.17
2019-06-26T09:35:36.247Z,28.31
2019-06-26T09:38:09.079Z,28.30
2019-06-26T09:40:43.454Z,28.88
2019-06-26T09:43:17.607Z,28.49
2019-06-26T09:45:53.834Z,28.61
2019-06-26T09:48:26.266Z,28.87
2019-06-26T09:50:58.679Z,28.71
2019-06-26T09:53:46.074Z,28.16
2019-06-26T09:56:07.657Z,28.85
2019-06-26T09:58:41.097Z,28.85
2019-06-26T10:01:13.772Z,29.06
2019-06-26T10:03:47.078Z,28.75
2019-06-26T10:06:19.113Z,28.88
2019-06-26T10:08:54.041Z,29.09
2019-06-26T10:11:26.836Z,28.75
2019-06-26T10:13:59.213Z,28.75
2019-06-26T10:16:33.286Z,28.55
2019-06-26T10:19:10.663Z,28.55
2019-06-26T10:21:42.317Z,28.57
2019-06-26T10:24:17.897Z,29.79
2019-06-26T10:26:51.914Z,30.43
2019-06-26T10:29:25.504Z,30.45
2019-06-26T10:32:00.578Z,30.78
2019-06-26T10:34:34.763Z,30.94
2019-06-26T10:37:08.014Z,32.02
2019-06-26T10:39:40.400Z,32.16
2019-06-26T10:42:13.859Z,32.73
2019-06-26T10:44:46.267Z,33.68
2019-06-26T10:47:20.801Z,33.90
2019-06-26T10:49:54.719Z,33.54
2019-06-26T10:52:27.766Z,33.79
2019-06-26T10:55:01.186Z,33.85
2019-06-26T10:57:36.356Z,33.77
2019-06-26T11:00:11.093Z,34.02
2019-06-26T11:02:45.826Z,34.42
2019-06-26T11:05:19.290Z,34.63
2019-06-26T11:07:51.831Z,34.30
2019-06-26T11:10:24.155Z,34.45
2019-06-26T11:12:58.501Z,34.34
2019-06-26T11:15:30.875Z,34.62
2019-06-26T11:18:04.930Z,35.47
2019-06-26T11:20:38.305Z,34.91
2019-06-26T11:23:12.233Z,34.49
2019-06-26T11:25:44.813Z,34.75
2019-06-26T11:28:17.374Z,35.03
2019-06-26T11:30:52.010Z,35.18
2019-06-26T11:33:24.368Z,35.34
2019-06-26T11:35:58.719Z,34.78
2019-06-26T11:38:31.046Z,35.10
2019-06-26T11:41:04.449Z,35.64
2019-06-26T11:43:38.935Z,35.87
2019-06-26T11:46:12.073Z,36.06
2019-06-26T11:48:46.034Z,35.65
2019-06-26T11:51:20.188Z,35.85
2019-06-26T11:53:52.418Z,36.32
2019-06-26T11:56:24.725Z,36.17
2019-06-26T11:58:57.057Z,35.50
2019-06-26T12:01:30.136Z,34.84
2019-06-26T12:04:08.188Z,35.82
2019-06-26T12:06:58.989Z,35.81
2019-06-26T12:09:49.102Z,35.58
2019-06-26T12:12:21.643Z,36.16
2019-06-26T12:14:55.228Z,37.74
2019-06-26T12:17:45.663Z,37.18
2019-06-26T12:20:19.957Z,36.93
2019-06-26T12:23:08.832Z,35.99
2019-06-26T12:25:58.118Z,35.98
2019-06-26T12:28:31.251Z,36.83
2019-06-26T12:31:04.259Z,37.14
2019-06-26T12:33:37.519Z,37.29
2019-06-26T12:36:27.531Z,37.30
2019-06-26T12:39:17.164Z,36.40
2019-06-26T12:41:49.920Z,35.96
2019-06-26T12:44:25.519Z,35.78
2019-06-26T12:47:14.248Z,34.72
2019-06-26T12:50:03.511Z,33.99
2019-06-26T12:52:52.258Z,33.36
2019-06-26T12:55:24.566Z,34.11
2019-06-26T12:58:19.448Z,35.44
2019-06-26T13:00:48.114Z,35.78
2019-06-26T13:03:36.452Z,35.92
2019-06-26T13:06:11.895Z,37.29
2019-06-26T13:08:47.180Z,37.64
2019-06-26T13:11:20.059Z,37.89
2019-06-26T13:14:02.015Z,37.91
2019-06-26T13:16:26.466Z,37.94
2019-06-26T13:19:00.029Z,37.53
2019-06-26T13:21:32.946Z,37.48
2019-06-26T13:24:05.756Z,37.71
2019-06-26T13:26:39.329Z,37.24
2019-06-26T13:29:12.065Z,37.14
2019-06-26T13:31:44.681Z,36.84
2019-06-26T13:34:18.994Z,37.45
2019-06-26T13:36:54.525Z,37.15
2019-06-26T13:39:26.768Z,36.87
2019-06-26T13:41:58.975Z,37.28
2019-06-26T13:44:33.532Z,37.80
2019-06-26T13:47:07.729Z,38.39
2019-06-26T13:49:39.778Z,38.00
2019-06-26T13:52:11.782Z,37.58
2019-06-26T13:54:44.187Z,38.13
2019-06-26T13:57:18.299Z,37.58
2019-06-26T13:59:53.012Z,37.63
2019-06-26T14:02:25.136Z,37.19
2019-06-26T14:04:57.816Z,37.49
2019-06-26T14:07:30.403Z,38.27
2019-06-26T14:10:03.008Z,37.42
2019-06-26T14:12:37.533Z,35.85
2019-06-26T14:15:10.797Z,36.66
2019-06-26T14:17:43.077Z,36.94
2019-06-26T14:20:15.263Z,36.43
2019-06-26T14:22:48.434Z,37.80
2019-06-26T14:25:19.738Z,37.56
2019-06-26T14:27:52.277Z,38.97
2019-06-26T14:30:27.655Z,38.46
2019-06-26T14:32:58.242Z,38.01
2019-06-26T14:35:30.375Z,38.41
2019-06-26T14:38:03.678Z,39.43
2019-06-26T14:40:36.148Z,37.55
2019-06-26T14:43:08.318Z,38.35
2019-06-26T14:45:40.587Z,37.14
2019-06-26T14:48:12.969Z,37.41
2019-06-26T14:50:45.256Z,37.47
2019-06-26T14:53:18.333Z,37.48
2019-06-26T14:55:50.445Z,37.85
2019-06-26T14:58:22.615Z,36.21
2019-06-26T15:00:54.591Z,34.55
2019-06-26T15:03:26.725Z,32.40
2019-06-26T15:06:12.289Z,31.16
2019-06-26T15:08:32.923Z,30.57
2019-06-26T15:11:05.451Z,30.32
2019-06-26T15:13:43.416Z,29.76
2019-06-26T15:16:16.747Z,29.29
2019-06-26T15:18:54.825Z,29.03
2019-06-26T15:21:29.145Z,28.84
2019-06-26T15:24:02.369Z,28.60
2019-06-26T15:26:36.052Z,28.37
2019-06-26T15:29:09.938Z,28.35
2019-06-26T15:31:42.211Z,28.37
2019-06-26T15:34:16.529Z,28.37
2019-06-26T15:36:50.941Z,28.37
2019-06-26T15:39:30.716Z,28.37
2019-06-26T15:42:18.529Z,28.53
2019-06-26T15:45:13.393Z,28.30
2019-06-26T15:47:48.683Z,28.30
2019-06-26T15:50:22.890Z,28.87
2019-06-26T15:52:55.095Z,28.69
2019-06-26T15:55:27.378Z,28.35
2019-06-26T15:58:00.808Z,28.05
2019-06-26T16:00:32.799Z,28.05
2019-06-26T16:03:05.885Z,27.91
2019-06-26T16:05:37.973Z,27.84
2019-06-26T16:08:11.766Z,27.73
2019-06-26T16:10:44.642Z,27.66
2019-06-26T16:13:16.818Z,27.54
2019-06-26T16:15:49.243Z,27.42
2019-06-26T16:18:33.118Z,27.41
2019-06-26T16:21:06.433Z,27.85
2019-06-26T16:23:38.530Z,28.68
2019-06-26T16:26:11.031Z,27.79
2019-06-26T16:28:43.318Z,27.79
2019-06-26T16:31:16.048Z,27.45
2019-06-26T16:33:48.284Z,27.16
2019-06-26T16:36:22.387Z,27.07
2019-06-26T16:38:56.040Z,26.98
2019-06-26T16:41:30.374Z,26.96
2019-06-26T16:44:02.752Z,26.90
2019-06-26T16:46:35.223Z,26.78
2019-06-26T16:49:08.781Z,26.69
2019-06-26T16:51:40.990Z,26.55
2019-06-26T16:54:13.205Z,26.41
2019-06-26T16:56:45.339Z,26.49
2019-06-26T16:59:18.639Z,27.26
2019-06-26T17:01:50.738Z,27.10
2019-06-26T17:04:22.871Z,27.08
2019-06-26T17:06:55.055Z,27.50
2019-06-26T17:09:27.220Z,26.87
2019-06-26T17:11:59.706Z,26.46
2019-06-26T17:14:32.382Z,26.20
2019-06-26T17:17:11.593Z,26.08
2019-06-26T17:19:43.931Z,25.96
2019-06-26T17:22:16.659Z,25.76
2019-06-26T17:24:49.377Z,25.73
2019-06-26T17:27:22.011Z,25.63
2019-06-26T17:29:54.544Z,25.61
2019-06-26T17:32:27.083Z,25.45
2019-06-26T17:34:59.583Z,25.46
2019-06-26T17:37:32.032Z,25.36
2019-06-26T17:40:04.685Z,25.20
2019-06-26T17:42:38.090Z,25.15
2019-06-26T17:45:11.277Z,25.14
2019-06-26T17:47:43.469Z,24.99
2019-06-26T17:50:17.805Z,24.96
2019-06-26T17:52:50.048Z,24.90
2019-06-26T17:55:22.561Z,24.88
2019-06-26T17:57:55.085Z,25.29
2019-06-26T18:00:36.006Z,25.90
2019-06-26T18:03:08.212Z,26.34
2019-06-26T18:05:42.161Z,26.16
2019-06-26T18:08:14.471Z,25.53
2019-06-26T18:10:48.050Z,25.10
2019-06-26T18:13:20.438Z,24.82
2019-06-26T18:15:53.456Z,24.64
2019-06-26T18:18:26.005Z,24.47
2019-06-26T18:21:00.468Z,24.29
2019-06-26T18:23:37.994Z,24.18
2019-06-26T18:26:13.098Z,24.14
2019-06-26T18:28:40.103Z,24.05
2019-06-26T18:31:12.469Z,24.03
2019-06-26T18:33:45.909Z,23.93
2019-06-26T18:36:18.888Z,23.84
2019-06-26T18:38:51.463Z,23.77
2019-06-26T18:41:24.211Z,23.81
2019-06-26T18:43:57.403Z,23.85
2019-06-26T18:46:29.730Z,23.76
2019-06-26T18:49:02.244Z,23.74
2019-06-26T18:51:34.582Z,23.75
2019-06-26T18:54:06.943Z,23.71
2019-06-26T18:56:39.995Z,23.62
2019-06-26T18:59:13.832Z,23.56
2019-06-26T19:01:46.205Z,23.42
2019-06-26T19:04:20.122Z,23.28
2019-06-26T19:06:52.694Z,23.22
2019-06-26T19:09:25.858Z,23.07
2019-06-26T19:11:58.741Z,22.95
2019-06-26T19:14:31.695Z,22.87
2019-06-26T19:17:03.934Z,22.93
2019-06-26T19:19:36.492Z,22.87
2019-06-26T19:22:09.001Z,22.82
2019-06-26T19:24:41.709Z,22.80
2019-06-26T19:27:14.158Z,22.75
2019-06-26T19:29:47.914Z,22.70
2019-06-26T19:32:20.896Z,22.71
2019-06-26T19:34:54.874Z,23.27
2019-06-26T19:37:27.098Z,23.20
2019-06-26T19:40:00.495Z,23.25
2019-06-26T19:42:33.513Z,23.11
2019-06-26T19:45:12.512Z,23.01
2019-06-26T19:47:44.891Z,22.88
2019-06-26T19:50:18.511Z,22.73
2019-06-26T19:52:51.397Z,22.62
2019-06-26T19:55:24.684Z,22.53
2019-06-26T19:57:57.872Z,22.50
2019-06-26T20:00:33.613Z,22.52
2019-06-26T20:03:05.926Z,22.52
2019-06-26T20:05:40.724Z,22.42
2019-06-26T20:08:13.116Z,22.33
2019-06-26T20:10:46.492Z,22.23
2019-06-26T20:13:19.045Z,22.22
2019-06-26T20:15:52.294Z,22.25
2019-06-26T20:18:24.968Z,22.11
2019-06-26T20:20:58.919Z,22.07
2019-06-26T20:23:33.667Z,21.97
2019-06-26T20:26:07.606Z,21.85
2019-06-26T20:28:41.771Z,21.75
2019-06-26T20:31:13.581Z,21.73
2019-06-26T20:33:45.871Z,21.77
2019-06-26T20:36:18.507Z,21.74
2019-06-26T20:38:50.748Z,21.65
2019-06-26T20:41:23.330Z,21.62
2019-06-26T20:43:58.771Z,21.61
2019-06-26T20:46:32.413Z,21.51
2019-06-26T20:49:04.865Z,21.31
2019-06-26T20:51:37.276Z,21.37
2019-06-26T20:54:09.546Z,21.27
2019-06-26T20:56:42.116Z,21.19
2019-06-26T20:59:14.771Z,21.20
2019-06-26T21:01:48.899Z,21.11
2019-06-26T21:04:23.058Z,21.04
2019-06-26T21:06:59.085Z,21.02
2019-06-26T21:09:31.812Z,20.93
2019-06-26T21:12:05.578Z,20.80
2019-06-26T21:14:42.525Z,21.06
2019-06-26T21:17:18.327Z,21.78
2019-06-26T21:19:54.409Z,22.19
2019-06-26T21:22:27.269Z,22.58
2019-06-26T21:25:16.881Z,21.96
2019-06-26T21:27:35.695Z,21.43
2019-06-26T21:30:11.091Z,21.09
2019-06-26T21:32:43.785Z,20.88
2019-06-26T21:35:16.905Z,20.74
2019-06-26T21:37:50.399Z,20.51
2019-06-26T21:40:24.319Z,20.34
2019-06-26T21:42:56.897Z,20.18
2019-06-26T21:45:31.381Z,20.24
2019-06-26T21:48:08.367Z,20.20
2019-06-26T21:50:43.437Z,20.12
2019-06-26T21:53:22.465Z,19.95
2019-06-26T21:56:15.301Z,19.88
2019-06-26T21:59:06.586Z,19.98
2019-06-26T22:02:01.391Z,20.03
2019-06-26T22:04:52.441Z,20.00
2019-06-26T22:07:37.333Z,19.94
2019-06-26T22:10:18.094Z,19.89
2019-06-26T22:12:51.476Z,19.86
2019-06-26T22:15:23.997Z,19.85
2019-06-26T22:17:56.793Z,19.92
2019-06-26T22:20:29.332Z,19.90
2019-06-26T22:23:01.695Z,19.83
2019-06-26T22:25:49.864Z,19.76
2019-06-26T22:28:08.633Z,19.73
2019-06-26T22:30:41.272Z,19.59
2019-06-26T22:33:13.683Z,19.50
2019-06-26T22:35:46.802Z,19.49
2019-06-26T22:38:19.418Z,19.51
2019-06-26T22:40:51.760Z,19.50
2019-06-26T22:43:25.312Z,19.47
2019-06-26T22:45:57.590Z,19.44
2019-06-26T22:48:32.426Z,19.32
2019-06-26T22:51:05.873Z,19.22
2019-06-26T22:53:38.137Z,19.14
2019-06-26T22:56:10.563Z,19.16
2019-06-26T22:58:43.042Z,19.23
2019-06-26T23:01:15.899Z,19.13
2019-06-26T23:03:48.452Z,19.18
2019-06-26T23:06:20.981Z,19.17
2019-06-26T23:08:54.236Z,19.13
2019-06-26T23:11:28.036Z,19.15
2019-06-26T23:14:00.482Z,19.10
2019-06-26T23:16:33.113Z,19.08
2019-06-26T23:19:05.336Z,19.12
2019-06-26T23:21:37.863Z,19.04
2019-06-26T23:24:10.405Z,19.02
2019-06-26T23:26:42.891Z,18.96
2019-06-26T23:29:15.460Z,18.93
2019-06-26T23:31:48.132Z,18.95
2019-06-26T23:34:20.591Z,19.14
2019-06-26T23:36:53.384Z,19.15
2019-06-26T23:39:25.974Z,19.08
2019-06-26T23:41:58.490Z,19.07
2019-06-26T23:44:31.034Z,19.12
2019-06-26T23:47:03.606Z,19.22
2019-06-26T23:49:37.115Z,19.27
2019-06-26T23:52:09.631Z,19.24
2019-06-26T23:54:42.497Z,19.27
2019-06-26T23:57:14.779Z,19.23
2019-06-26T23:59:47.421Z,19.09
